Time;durP1;ratioP1;P1;durP2;ratioP2;P2;SDS_P1;SDS_P2;PMS_P1;PMS_P2;Temp;Humidity;BMP_temperature;BMP_pressure;BME280_temperature;BME280_humidity;BME280_pressure;Samples;Min_cycle;Max_cycle;Signal;HPM_P1;HPM_P2
2023/04/02 00:00:56;;;;;;;;;;;10.20;99.90;;;;;;5011199;28;19920;-64
2023/04/02 00:03:21;;;;;;;;;;;10.20;99.90;;;;;;5013825;28;20268;-64
2023/04/02 00:05:50;;;;;;;;;;;10.30;99.90;;;;;;5008924;28;20004;-64
2023/04/02 00:08:45;;;;;;;;;;;10.30;99.90;;;;;;5013403;28;20389;-63
2023/04/02 00:11:11;;;;;;;;;;;10.30;99.90;;;;;;5006764;28;20394;-64
2023/04/02 00:13:43;;;;;;;;;;;10.30;99.90;;;;;;5013987;28;20371;-64
2023/04/02 00:16:11;;;;;;;;;;;10.40;99.90;;;;;;5011468;28;20000;-64
2023/04/02 00:18:39;;;;;;;;;;;10.40;99.90;;;;;;5013691;28;20004;-64
2023/04/02 00:21:07;;;;;;;;;;;10.40;99.90;;;;;;5010280;28;19932;-64
2023/04/02 00:23:35;;;;;;;;;;;10.40;99.90;;;;;;5011733;28;19975;-64
2023/04/02 00:26:00;;;;;;;;;;;10.40;99.90;;;;;;5008650;28;19983;-63
2023/04/02 00:28:26;;;;;;;;;;;10.40;99.90;;;;;;5010944;28;19926;-63
2023/04/02 00:30:55;;;;;;;;;;;10.40;99.90;;;;;;5009456;28;20357;-64
2023/04/02 00:33:22;;;;;;;;;;;10.40;99.90;;;;;;5012054;28;20399;-64
2023/04/02 00:35:49;;;;;;;;;;;10.40;99.90;;;;;;5007373;28;19960;-64
2023/04/02 00:38:25;;;;;;;;;;;10.40;99.90;;;;;;5011280;28;20126;-64
2023/04/02 00:40:51;;;;;;;;;;;10.30;99.90;;;;;;5009502;28;19956;-64
2023/04/02 00:43:17;;;;;;;;;;;10.30;99.90;;;;;;5010095;28;20338;-64
2023/04/02 00:45:49;;;;;;;;;;;10.30;99.90;;;;;;5008958;28;19913;-64
2023/04/02 00:48:33;;;;;;;;;;;10.30;99.90;;;;;;5010224;28;19983;-64
2023/04/02 00:51:00;;;;;;;;;;;10.30;99.90;;;;;;5005691;28;19913;-64
2023/04/02 00:53:27;;;;;;;;;;;10.30;99.90;;;;;;5010812;28;19971;-63
2023/04/02 00:55:53;;;;;;;;;;;10.30;99.90;;;;;;5008436;28;19913;-64
2023/04/02 00:58:25;;;;;;;;;;;10.40;99.90;;;;;;5007838;28;19972;-64
2023/04/02 01:00:51;;;;;;;;;;;10.30;99.90;;;;;;5010323;28;19918;-64
2023/04/02 01:03:16;;;;;;;;;;;10.40;99.90;;;;;;5008536;28;19925;-63
2023/04/02 01:05:43;;;;;;;;;;;10.30;99.90;;;;;;5006394;28;19920;-64
2023/04/02 01:08:27;;;;;;;;;;;10.30;99.90;;;;;;5008692;28;20295;-62
2023/04/02 01:11:01;;;;;;;;;;;10.30;99.90;;;;;;5004976;28;20360;-64
2023/04/02 01:13:30;;;;;;;;;;;10.30;99.90;;;;;;5009241;28;19967;-63
2023/04/02 01:16:07;;;;;;;;;;;10.20;99.90;;;;;;5007928;28;19918;-63
2023/04/02 01:18:45;;;;;;;;;;;10.00;99.90;;;;;;5006744;28;19925;-63
2023/04/02 01:21:24;;;;;;;;;;;9.80;99.90;;;;;;5006227;28;19917;-63
2023/04/02 01:23:57;;;;;;;;;;;9.70;99.90;;;;;;5002032;28;19960;-62
2023/04/02 01:26:35;;;;;;;;;;;9.60;99.90;;;;;;5005069;28;19914;-63
2023/04/02 01:29:04;;;;;;;;;;;9.50;99.90;;;;;;5008902;28;19920;-63
2023/04/02 01:31:31;;;;;;;;;;;9.40;99.90;;;;;;4999605;28;19924;-62
2023/04/02 01:33:57;;;;;;;;;;;9.40;99.90;;;;;;5007281;28;19920;-61
2023/04/02 01:36:55;;;;;;;;;;;9.30;99.90;;;;;;5008634;28;19913;-63
2023/04/02 01:39:39;;;;;;;;;;;9.30;99.90;;;;;;5017527;28;19922;-61
2023/04/02 01:42:11;;;;;;;;;;;9.20;99.90;;;;;;5008584;28;20104;-62
2023/04/02 01:44:45;;;;;;;;;;;9.10;99.90;;;;;;5007034;28;19917;-63
2023/04/02 01:47:12;;;;;;;;;;;9.10;99.90;;;;;;5006933;28;20414;-63
2023/04/02 01:49:39;;;;;;;;;;;9.00;99.90;;;;;;5007915;28;19924;-62
2023/04/02 01:52:05;;;;;;;;;;;9.00;99.90;;;;;;5008359;28;19914;-63
2023/04/02 01:54:30;;;;;;;;;;;8.90;99.90;;;;;;5008531;28;19917;-63
2023/04/02 01:56:56;;;;;;;;;;;8.90;99.90;;;;;;5008827;28;19913;-63
2023/04/02 01:59:22;;;;;;;;;;;8.80;99.90;;;;;;5007471;28;20008;-62
2023/04/02 02:01:50;;;;;;;;;;;8.80;99.90;;;;;;5006266;28;20020;-63
2023/04/02 02:04:17;;;;;;;;;;;8.80;99.90;;;;;;5007568;28;19920;-63
2023/04/02 02:06:42;;;;;;;;;;;8.70;99.90;;;;;;5008890;28;20012;-62
2023/04/02 02:09:11;;;;;;;;;;;8.60;99.90;;;;;;5008753;28;20418;-62
2023/04/02 02:11:37;;;;;;;;;;;8.60;99.90;;;;;;5009869;28;19913;-63
2023/04/02 02:14:14;;;;;;;;;;;8.60;99.90;;;;;;5007976;28;19921;-62
2023/04/02 02:16:42;;;;;;;;;;;8.60;99.90;;;;;;5010143;28;19968;-63
2023/04/02 02:19:31;;;;;;;;;;;8.60;99.90;;;;;;5008340;28;20012;-63
2023/04/02 02:22:05;;;;;;;;;;;8.50;99.90;;;;;;5007740;28;19921;-64
2023/04/02 02:24:32;;;;;;;;;;;8.50;99.90;;;;;;5008529;28;19914;-64
2023/04/02 02:27:04;;;;;;;;;;;8.50;99.90;;;;;;5007386;28;19960;-63
2023/04/02 02:29:31;;;;;;;;;;;8.50;99.90;;;;;;5004462;28;19949;-64
2023/04/02 02:31:58;;;;;;;;;;;8.50;99.90;;;;;;5008584;28;19917;-63
2023/04/02 02:34:30;;;;;;;;;;;8.50;99.90;;;;;;5005758;28;19920;-63
2023/04/02 02:36:58;;;;;;;;;;;8.50;99.90;;;;;;5008425;28;19918;-64
2023/04/02 02:39:50;;;;;;;;;;;8.50;99.90;;;;;;5008818;28;19964;-64
2023/04/02 02:42:26;;;;;;;;;;;8.40;99.90;;;;;;5007175;28;19917;-63
2023/04/02 02:44:52;;;;;;;;;;;8.50;99.90;;;;;;5007312;28;19959;-64
2023/04/02 02:47:21;;;;;;;;;;;8.50;99.90;;;;;;5009145;28;20322;-64
2023/04/02 02:49:49;;;;;;;;;;;8.30;99.90;;;;;;5008441;28;19917;-64
2023/04/02 02:52:16;;;;;;;;;;;8.30;99.90;;;;;;5005986;28;19922;-64
2023/04/02 02:54:48;;;;;;;;;;;8.30;99.90;;;;;;5010981;28;19909;-63
2023/04/02 02:57:17;;;;;;;;;;;8.30;99.90;;;;;;5007247;28;19913;-63
2023/04/02 02:59:43;;;;;;;;;;;8.30;99.90;;;;;;5008456;28;19939;-63
2023/04/02 03:02:09;;;;;;;;;;;8.20;99.90;;;;;;5012214;28;19917;-63
2023/04/02 03:04:34;;;;;;;;;;;8.20;99.90;;;;;;5007769;28;19921;-64
2023/04/02 03:07:00;;;;;;;;;;;8.20;99.90;;;;;;5007397;28;19987;-64
2023/04/02 03:09:29;;;;;;;;;;;8.20;99.90;;;;;;5010130;28;19913;-63
2023/04/02 03:11:58;;;;;;;;;;;8.10;99.90;;;;;;5013044;28;19952;-63
2023/04/02 03:14:43;;;;;;;;;;;8.10;99.90;;;;;;5013009;28;19922;-64
2023/04/02 03:17:17;;;;;;;;;;;8.10;99.90;;;;;;5011733;28;19914;-63
2023/04/02 03:20:05;;;;;;;;;;;8.00;99.90;;;;;;5010967;28;19965;-64
2023/04/02 03:22:53;;;;;;;;;;;8.00;99.90;;;;;;5012295;28;19956;-63
2023/04/02 03:25:35;;;;;;;;;;;8.00;99.90;;;;;;5012140;28;19959;-64
2023/04/02 03:28:04;;;;;;;;;;;8.00;99.90;;;;;;5008246;28;20012;-64
2023/04/02 03:30:29;;;;;;;;;;;8.00;99.90;;;;;;5008601;28;19924;-64
2023/04/02 03:33:03;;;;;;;;;;;8.00;99.90;;;;;;5008654;28;20514;-64
2023/04/02 03:35:41;;;;;;;;;;;8.00;99.90;;;;;;5005648;28;19921;-63
2023/04/02 03:38:21;;;;;;;;;;;8.00;99.90;;;;;;5007032;28;19914;-62
2023/04/02 03:40:53;;;;;;;;;;;7.90;99.90;;;;;;5002949;28;20427;-63
2023/04/02 03:43:25;;;;;;;;;;;7.90;99.90;;;;;;5009087;28;19953;-64
2023/04/02 03:45:54;;;;;;;;;;;7.90;99.90;;;;;;5011302;28;19999;-69
2023/04/02 03:48:28;;;;;;;;;;;7.90;99.90;;;;;;5011403;28;19922;-64
2023/04/02 03:51:05;;;;;;;;;;;7.90;99.90;;;;;;5007891;28;19992;-64
2023/04/02 03:53:31;;;;;;;;;;;7.90;99.90;;;;;;5009836;28;20319;-64
2023/04/02 03:55:58;;;;;;;;;;;7.80;99.90;;;;;;5010775;28;19944;-64
2023/04/02 03:58:37;;;;;;;;;;;7.80;99.90;;;;;;5006838;28;19921;-64
2023/04/02 04:01:18;;;;;;;;;;;7.80;99.90;;;;;;5011562;28;20450;-63
2023/04/02 04:03:45;;;;;;;;;;;7.80;99.90;;;;;;5009419;28;19917;-64
2023/04/02 04:06:14;;;;;;;;;;;7.70;99.90;;;;;;5011282;28;19914;-61
2023/04/02 04:08:42;;;;;;;;;;;7.70;99.90;;;;;;5009971;28;19913;-63
2023/04/02 04:11:12;;;;;;;;;;;7.70;99.90;;;;;;5010489;28;19917;-63
2023/04/02 04:13:45;;;;;;;;;;;7.70;99.90;;;;;;5009872;28;19963;-62
2023/04/02 04:16:14;;;;;;;;;;;7.70;99.90;;;;;;5009054;28;19914;-63
2023/04/02 04:18:41;;;;;;;;;;;7.70;99.90;;;;;;5011046;28;19921;-63
2023/04/02 04:21:29;;;;;;;;;;;7.60;99.90;;;;;;5010197;28;19917;-63
2023/04/02 04:24:02;;;;;;;;;;;7.60;99.90;;;;;;5008880;28;19948;-63
2023/04/02 04:26:34;;;;;;;;;;;7.60;99.90;;;;;;5010143;28;19921;-63
2023/04/02 04:29:11;;;;;;;;;;;7.60;99.90;;;;;;5008014;28;19924;-65
2023/04/02 04:31:45;;;;;;;;;;;7.50;99.90;;;;;;5009181;28;20431;-64
2023/04/02 04:34:23;;;;;;;;;;;7.50;99.90;;;;;;5006438;28;19936;-64
2023/04/02 04:36:54;;;;;;;;;;;7.50;99.90;;;;;;5012455;28;19921;-64
2023/04/02 04:39:39;;;;;;;;;;;7.40;99.90;;;;;;5003513;28;19961;-63
2023/04/02 04:42:06;;;;;;;;;;;7.50;99.90;;;;;;5008805;28;20352;-64
2023/04/02 04:44:34;;;;;;;;;;;7.40;99.90;;;;;;5008099;28;19917;-64
2023/04/02 04:47:07;;;;;;;;;;;7.40;99.90;;;;;;5009649;28;20513;-64
2023/04/02 04:49:38;;;;;;;;;;;7.30;99.90;;;;;;5007373;28;19913;-64
2023/04/02 04:52:18;;;;;;;;;;;7.30;99.90;;;;;;5009574;28;19992;-64
2023/04/02 04:54:44;;;;;;;;;;;7.20;99.90;;;;;;5009301;28;19924;-63
2023/04/02 04:57:30;;;;;;;;;;;7.20;99.90;;;;;;5006228;28;20386;-63
2023/04/02 05:00:05;;;;;;;;;;;7.20;99.90;;;;;;5008863;28;19917;-63
2023/04/02 05:02:34;;;;;;;;;;;7.10;99.90;;;;;;5009694;28;20065;-63
2023/04/02 05:05:01;;;;;;;;;;;7.10;99.90;;;;;;5007009;28;19948;-62
2023/04/02 05:07:28;;;;;;;;;;;7.00;99.90;;;;;;5001779;28;19917;-60
2023/04/02 05:10:12;;;;;;;;;;;7.00;99.90;;;;;;5006689;28;20495;-63
2023/04/02 05:12:40;;;;;;;;;;;7.00;99.90;;;;;;5006014;28;20318;-63
2023/04/02 05:15:14;;;;;;;;;;;7.00;99.90;;;;;;5010148;28;20514;-61
2023/04/02 05:17:51;;;;;;;;;;;7.00;99.90;;;;;;5003345;28;20311;-63
2023/04/02 05:20:23;;;;;;;;;;;7.00;99.90;;;;;;5006328;28;19917;-63
2023/04/02 05:22:52;;;;;;;;;;;7.00;99.90;;;;;;5006854;28;19925;-63
2023/04/02 05:25:20;;;;;;;;;;;7.00;99.90;;;;;;5008548;28;19913;-63
2023/04/02 05:28:10;;;;;;;;;;;6.90;99.90;;;;;;5008193;28;19974;-62
2023/04/02 05:30:45;;;;;;;;;;;6.90;99.90;;;;;;5008479;28;19914;-62
2023/04/02 05:33:22;;;;;;;;;;;6.90;99.90;;;;;;5006093;28;19913;-62
2023/04/02 05:35:51;;;;;;;;;;;6.90;99.90;;;;;;5008636;28;19913;-63
2023/04/02 05:38:21;;;;;;;;;;;6.90;99.90;;;;;;5005709;28;19925;-63
2023/04/02 05:40:50;;;;;;;;;;;6.90;99.90;;;;;;5005830;28;19925;-63
2023/04/02 05:43:17;;;;;;;;;;;6.90;99.90;;;;;;5006249;28;20396;-62
2023/04/02 05:45:44;;;;;;;;;;;6.90;99.90;;;;;;5004767;28;19921;-63
2023/04/02 05:48:16;;;;;;;;;;;6.90;99.90;;;;;;5006706;28;19914;-62
2023/04/02 05:50:44;;;;;;;;;;;6.90;99.90;;;;;;5004971;28;19928;-63
2023/04/02 05:53:13;;;;;;;;;;;6.90;99.90;;;;;;5005238;28;19933;-62
2023/04/02 05:55:47;;;;;;;;;;;6.90;99.90;;;;;;5005921;28;19964;-63
2023/04/02 05:58:16;;;;;;;;;;;6.90;99.90;;;;;;5002498;28;19975;-63
2023/04/02 06:00:56;;;;;;;;;;;6.90;99.90;;;;;;5007918;28;20025;-64
2023/04/02 06:03:31;;;;;;;;;;;6.90;99.90;;;;;;5005769;28;19913;-62
2023/04/02 06:05:59;;;;;;;;;;;6.80;99.90;;;;;;5005007;28;19917;-63
2023/04/02 06:08:30;;;;;;;;;;;6.90;99.90;;;;;;4995121;28;20306;-63
2023/04/02 06:11:10;;;;;;;;;;;6.80;99.90;;;;;;5007280;28;20008;-62
2023/04/02 06:13:36;;;;;;;;;;;6.80;99.90;;;;;;5003900;28;19918;-63
2023/04/02 06:16:02;;;;;;;;;;;6.90;99.90;;;;;;5004622;28;19921;-63
2023/04/02 06:18:29;;;;;;;;;;;6.80;99.90;;;;;;5008833;28;20422;-64
2023/04/02 06:20:54;;;;;;;;;;;6.80;99.90;;;;;;5007666;28;19917;-65
2023/04/02 06:23:52;;;;;;;;;;;6.70;99.90;;;;;;5003670;28;19917;-63
2023/04/02 06:26:26;;;;;;;;;;;6.70;99.90;;;;;;5003203;28;19917;-63
2023/04/02 06:28:55;;;;;;;;;;;6.70;99.90;;;;;;5005946;28;19918;-62
2023/04/02 06:31:26;;;;;;;;;;;6.70;99.90;;;;;;5008955;28;19913;-63
2023/04/02 06:33:53;;;;;;;;;;;6.70;99.90;;;;;;5002194;28;20379;-63
2023/04/02 06:36:19;;;;;;;;;;;6.70;99.90;;;;;;5006159;28;19921;-64
2023/04/02 06:38:46;;;;;;;;;;;6.70;99.90;;;;;;5004294;28;19917;-63
2023/04/02 06:41:18;;;;;;;;;;;6.70;99.90;;;;;;5006274;28;19921;-62
2023/04/02 06:43:49;;;;;;;;;;;6.70;99.90;;;;;;5002429;28;20044;-64
2023/04/02 06:46:25;;;;;;;;;;;6.70;99.90;;;;;;5002936;28;19968;-63
2023/04/02 06:48:52;;;;;;;;;;;6.70;99.90;;;;;;5003364;28;19933;-64
2023/04/02 06:51:21;;;;;;;;;;;6.70;99.90;;;;;;5003518;28;19928;-64
2023/04/02 06:53:47;;;;;;;;;;;6.80;99.90;;;;;;5004596;28;19929;-64
2023/04/02 06:56:22;;;;;;;;;;;6.70;99.90;;;;;;5006437;28;19920;-63
2023/04/02 06:58:48;;;;;;;;;;;6.70;99.90;;;;;;5006471;28;19913;-64
2023/04/02 07:01:18;;;;;;;;;;;6.60;99.90;;;;;;5006719;28;19967;-64
2023/04/02 07:03:44;;;;;;;;;;;6.70;99.90;;;;;;5009134;28;20478;-63
2023/04/02 07:06:17;;;;;;;;;;;6.60;99.90;;;;;;5005620;28;19997;-64
2023/04/02 07:08:42;;;;;;;;;;;6.50;99.90;;;;;;5008992;28;19968;-64
2023/04/02 07:11:12;;;;;;;;;;;6.50;99.90;;;;;;5005807;28;19917;-64
2023/04/02 07:13:38;;;;;;;;;;;6.40;99.90;;;;;;5008145;28;19913;-64
2023/04/02 07:16:03;;;;;;;;;;;6.40;99.90;;;;;;5004835;28;20421;-63
2023/04/02 07:18:30;;;;;;;;;;;6.40;99.90;;;;;;5004282;28;19996;-63
2023/04/02 07:20:56;;;;;;;;;;;6.40;99.90;;;;;;5007260;28;19987;-64
2023/04/02 07:23:22;;;;;;;;;;;6.40;99.90;;;;;;5008503;28;20387;-64
2023/04/02 07:25:48;;;;;;;;;;;6.40;99.90;;;;;;5004504;28;19944;-64
2023/04/02 07:28:15;;;;;;;;;;;6.40;99.90;;;;;;5004996;28;20418;-64
2023/04/02 07:30:41;;;;;;;;;;;6.40;99.90;;;;;;5006863;28;19996;-64
2023/04/02 07:33:09;;;;;;;;;;;6.40;99.90;;;;;;5007061;28;19984;-63
2023/04/02 07:35:35;;;;;;;;;;;6.40;99.90;;;;;;5004481;28;19921;-64
2023/04/02 07:38:00;;;;;;;;;;;6.40;99.90;;;;;;5002577;28;19921;-64
2023/04/02 07:40:26;;;;;;;;;;;6.40;99.90;;;;;;4997154;28;19924;-64
2023/04/02 07:42:51;;;;;;;;;;;6.40;99.90;;;;;;4999990;28;19913;-64
2023/04/02 07:45:17;;;;;;;;;;;6.40;99.90;;;;;;5003289;28;19945;-63
2023/04/02 07:47:42;;;;;;;;;;;6.40;99.90;;;;;;5003576;28;20071;-64
2023/04/02 07:50:09;;;;;;;;;;;6.30;99.90;;;;;;5005626;28;19960;-64
2023/04/02 07:52:43;;;;;;;;;;;6.30;99.90;;;;;;5004282;28;19925;-64
2023/04/02 07:55:11;;;;;;;;;;;6.40;99.90;;;;;;5008482;28;19920;-64
2023/04/02 07:57:37;;;;;;;;;;;6.30;99.90;;;;;;5009788;28;19913;-64
2023/04/02 08:00:03;;;;;;;;;;;6.30;99.90;;;;;;5008783;28;20418;-64
2023/04/02 08:02:29;;;;;;;;;;;6.30;99.90;;;;;;5010011;28;19964;-64
2023/04/02 08:04:55;;;;;;;;;;;6.40;99.90;;;;;;5014367;28;19955;-64
2023/04/02 08:07:20;;;;;;;;;;;6.30;99.90;;;;;;5005180;28;20017;-64
2023/04/02 08:09:46;;;;;;;;;;;6.40;99.90;;;;;;5008514;28;19920;-64
2023/04/02 08:12:12;;;;;;;;;;;6.40;99.90;;;;;;5009965;28;20407;-64
2023/04/02 08:14:37;;;;;;;;;;;6.30;99.90;;;;;;5009296;28;19913;-64
2023/04/02 08:17:03;;;;;;;;;;;6.40;99.90;;;;;;5008552;28;20584;-63
2023/04/02 08:19:28;;;;;;;;;;;6.50;99.90;;;;;;5009507;28;20318;-63
2023/04/02 08:21:55;;;;;;;;;;;6.50;99.90;;;;;;5013646;28;19952;-63
2023/04/02 08:24:20;;;;;;;;;;;6.60;99.90;;;;;;5005966;28;19914;-64
2023/04/02 08:26:46;;;;;;;;;;;6.50;99.90;;;;;;5006656;28;19914;-61
2023/04/02 08:29:12;;;;;;;;;;;6.50;99.90;;;;;;5000127;28;20237;-63
2023/04/02 08:31:37;;;;;;;;;;;6.50;99.90;;;;;;5006145;28;20322;-63
2023/04/02 08:34:03;;;;;;;;;;;6.40;99.90;;;;;;5004884;28;19914;-63
2023/04/02 08:36:31;;;;;;;;;;;6.40;99.90;;;;;;5000700;28;20516;-64
2023/04/02 08:38:57;;;;;;;;;;;6.40;99.90;;;;;;5008216;28;19914;-63
2023/04/02 08:41:26;;;;;;;;;;;6.40;99.90;;;;;;5005405;28;20386;-63
2023/04/02 08:44:10;;;;;;;;;;;6.50;99.90;;;;;;5010234;28;19914;-64
2023/04/02 08:46:40;;;;;;;;;;;6.50;99.90;;;;;;5006718;28;20280;-64
2023/04/02 08:49:11;;;;;;;;;;;6.60;99.90;;;;;;5004635;28;19996;-64
2023/04/02 08:51:36;;;;;;;;;;;6.60;99.90;;;;;;5005513;28;19968;-65
2023/04/02 08:54:07;;;;;;;;;;;6.60;99.90;;;;;;5004682;28;19918;-64
2023/04/02 08:56:39;;;;;;;;;;;6.60;99.90;;;;;;5003876;28;19914;-64
2023/04/02 08:59:20;;;;;;;;;;;6.50;99.90;;;;;;5003960;28;20338;-64
2023/04/02 09:02:08;;;;;;;;;;;6.50;99.90;;;;;;5002402;28;20617;-64
2023/04/02 09:04:35;;;;;;;;;;;6.40;99.90;;;;;;5004330;28;19913;-64
2023/04/02 09:07:02;;;;;;;;;;;6.30;99.90;;;;;;4991943;28;19924;-63
2023/04/02 09:09:27;;;;;;;;;;;6.30;99.90;;;;;;5003482;28;20264;-64
2023/04/02 09:11:59;;;;;;;;;;;6.30;99.90;;;;;;5009767;28;19924;-62
2023/04/02 09:14:55;;;;;;;;;;;6.30;99.90;;;;;;5005717;28;20011;-62
2023/04/02 09:17:22;;;;;;;;;;;6.30;99.90;;;;;;5005265;28;19929;-63
2023/04/02 09:19:56;;;;;;;;;;;6.30;99.90;;;;;;5004113;28;19925;-64
2023/04/02 09:22:32;;;;;;;;;;;6.30;99.90;;;;;;5002230;28;19924;-63
2023/04/02 09:24:59;;;;;;;;;;;6.20;99.90;;;;;;5002052;28;19920;-63
2023/04/02 09:27:29;;;;;;;;;;;6.30;99.90;;;;;;5009387;28;19917;-64
2023/04/02 09:30:02;;;;;;;;;;;6.30;99.90;;;;;;5011686;28;19918;-63
2023/04/02 09:32:54;;;;;;;;;;;6.40;99.90;;;;;;5009484;28;19965;-63
2023/04/02 09:35:22;;;;;;;;;;;6.40;99.90;;;;;;5007989;28;20380;-63
2023/04/02 09:38:07;;;;;;;;;;;6.40;99.90;;;;;;5006326;28;19920;-63
2023/04/02 09:40:45;;;;;;;;;;;6.50;99.90;;;;;;5005667;28;19989;-64
2023/04/02 09:43:21;;;;;;;;;;;6.50;99.90;;;;;;5004882;28;20000;-63
2023/04/02 09:46:00;;;;;;;;;;;6.60;99.90;;;;;;5007834;28;19975;-63
2023/04/02 09:48:32;;;;;;;;;;;6.60;99.90;;;;;;5005745;28;19917;-63
2023/04/02 09:51:05;;;;;;;;;;;6.70;99.90;;;;;;5006548;28;19918;-63
2023/04/02 09:53:38;;;;;;;;;;;6.80;99.90;;;;;;5008740;28;19919;-63
2023/04/02 09:56:08;;;;;;;;;;;6.80;99.90;;;;;;5001410;28;19914;-64
2023/04/02 09:58:34;;;;;;;;;;;6.80;99.90;;;;;;5007175;28;20330;-63
2023/04/02 10:00:59;;;;;;;;;;;6.80;99.90;;;;;;5008622;28;19964;-64
2023/04/02 10:03:30;;;;;;;;;;;6.90;99.90;;;;;;5006185;28;19925;-64
2023/04/02 10:06:09;;;;;;;;;;;6.90;99.90;;;;;;5005641;28;20015;-63
2023/04/02 10:08:35;;;;;;;;;;;6.90;99.90;;;;;;5008477;28;19917;-63
2023/04/02 10:11:02;;;;;;;;;;;6.90;99.90;;;;;;5005074;28;19917;-63
2023/04/02 10:13:39;;;;;;;;;;;6.90;99.90;;;;;;5008249;28;20420;-63
2023/04/02 10:16:08;;;;;;;;;;;6.90;99.90;;;;;;4998905;28;19917;-62
2023/04/02 10:18:37;;;;;;;;;;;6.80;99.90;;;;;;4997626;28;19960;-62
2023/04/02 10:21:04;;;;;;;;;;;6.80;99.90;;;;;;5001443;28;19925;-63
2023/04/02 10:23:30;;;;;;;;;;;6.80;99.90;;;;;;4998629;28;19964;-66
2023/04/02 10:26:10;;;;;;;;;;;6.90;99.90;;;;;;5002389;28;19979;-64
2023/04/02 10:28:46;;;;;;;;;;;7.00;99.90;;;;;;4998126;28;19925;-62
2023/04/02 10:31:18;;;;;;;;;;;7.10;99.90;;;;;;4996179;28;19919;-63
2023/04/02 10:33:47;;;;;;;;;;;7.20;99.90;;;;;;4999060;28;21727;-63
2023/04/02 10:36:18;;;;;;;;;;;7.20;99.90;;;;;;5001697;28;20003;-63
2023/04/02 10:38:53;;;;;;;;;;;7.30;99.90;;;;;;4999955;28;20000;-64
2023/04/02 10:41:22;;;;;;;;;;;7.30;99.90;;;;;;5000928;28;19925;-62
2023/04/02 10:44:07;;;;;;;;;;;7.30;99.90;;;;;;5009856;28;19949;-63
2023/04/02 10:46:36;;;;;;;;;;;7.40;99.90;;;;;;5005733;28;19998;-63
2023/04/02 10:49:06;;;;;;;;;;;7.50;99.90;;;;;;5001006;28;19984;-63
2023/04/02 10:51:36;;;;;;;;;;;7.70;99.90;;;;;;5005839;28;19914;-62
2023/04/02 10:54:01;;;;;;;;;;;7.70;99.90;;;;;;5009768;28;19940;-64
2023/04/02 10:56:28;;;;;;;;;;;7.80;99.90;;;;;;5002329;28;20015;-63
2023/04/02 10:58:59;;;;;;;;;;;7.90;99.90;;;;;;4996661;28;20059;-63
2023/04/02 11:01:28;;;;;;;;;;;7.80;99.90;;;;;;4996750;28;20515;-62
2023/04/02 11:03:58;;;;;;;;;;;7.90;99.90;;;;;;4996516;28;19917;-63
2023/04/02 11:06:39;;;;;;;;;;;7.80;99.90;;;;;;4997423;28;19917;-61
2023/04/02 11:09:06;;;;;;;;;;;7.90;99.90;;;;;;4997706;28;20531;-63
2023/04/02 11:11:36;;;;;;;;;;;8.00;99.90;;;;;;4999610;28;19914;-63
2023/04/02 11:14:03;;;;;;;;;;;7.90;99.90;;;;;;4997758;28;20335;-63
2023/04/02 11:16:29;;;;;;;;;;;7.90;99.90;;;;;;4997841;28;20008;-63
2023/04/02 11:19:13;;;;;;;;;;;7.90;99.90;;;;;;4998437;28;20446;-62
2023/04/02 11:21:43;;;;;;;;;;;7.80;99.90;;;;;;5004176;28;19918;-62
2023/04/02 11:24:29;;;;;;;;;;;7.80;99.90;;;;;;5003478;28;19920;-63
2023/04/02 11:27:15;;;;;;;;;;;7.80;99.90;;;;;;4997860;28;19918;-64
2023/04/02 11:29:45;;;;;;;;;;;7.90;99.90;;;;;;5007848;28;20398;-63
2023/04/02 11:32:11;;;;;;;;;;;7.90;99.90;;;;;;5003839;28;19927;-63
2023/04/02 11:34:39;;;;;;;;;;;8.00;99.90;;;;;;5008298;28;19917;-63
2023/04/02 11:37:23;;;;;;;;;;;8.10;99.90;;;;;;5009721;28;19917;-63
2023/04/02 11:39:55;;;;;;;;;;;8.20;99.90;;;;;;5007294;28;19940;-63
2023/04/02 11:42:34;;;;;;;;;;;8.10;99.90;;;;;;5006522;28;20371;-62
2023/04/02 11:45:20;;;;;;;;;;;8.10;99.90;;;;;;5010214;28;20000;-62
2023/04/02 11:48:08;;;;;;;;;;;8.40;99.90;;;;;;5011535;28;20402;-63
2023/04/02 11:50:34;;;;;;;;;;;8.40;99.90;;;;;;5007287;28;19971;-63
2023/04/02 11:53:09;;;;;;;;;;;8.40;99.90;;;;;;5008177;28;19996;-61
2023/04/02 11:55:35;;;;;;;;;;;8.50;99.90;;;;;;5001997;28;19918;-63
2023/04/02 11:58:07;;;;;;;;;;;8.50;99.90;;;;;;5008478;28;20283;-62
2023/04/02 12:00:52;;;;;;;;;;;8.30;99.90;;;;;;5004395;28;19921;-62
2023/04/02 12:03:20;;;;;;;;;;;8.30;99.90;;;;;;5012283;28;19919;-63
2023/04/02 12:05:49;;;;;;;;;;;8.30;99.90;;;;;;5005890;28;20520;-62
2023/04/02 12:08:46;;;;;;;;;;;8.30;99.90;;;;;;5001047;28;20013;-63
2023/04/02 12:11:13;;;;;;;;;;;8.50;99.90;;;;;;5008240;28;19915;-63
2023/04/02 12:13:38;;;;;;;;;;;8.60;99.90;;;;;;5008887;28;20309;-63
2023/04/02 12:16:04;;;;;;;;;;;8.70;99.90;;;;;;5003160;28;20040;-62
2023/04/02 12:18:30;;;;;;;;;;;8.90;99.90;;;;;;5001941;28;19952;-63
2023/04/02 12:20:56;;;;;;;;;;;8.80;99.90;;;;;;5008541;28;19961;-62
2023/04/02 12:23:25;;;;;;;;;;;8.90;99.90;;;;;;5006849;28;20004;-64
2023/04/02 12:26:02;;;;;;;;;;;8.70;99.90;;;;;;5004279;28;19914;-62
2023/04/02 12:28:28;;;;;;;;;;;8.60;99.90;;;;;;5005217;28;19914;-61
2023/04/02 12:31:02;;;;;;;;;;;8.60;99.90;;;;;;5002414;28;19914;-63
2023/04/02 12:33:29;;;;;;;;;;;8.50;99.90;;;;;;5003632;28;19925;-64
2023/04/02 12:35:59;;;;;;;;;;;8.50;99.90;;;;;;5006309;28;19913;-62
2023/04/02 12:38:29;;;;;;;;;;;8.50;99.90;;;;;;5008304;28;19968;-61
2023/04/02 12:40:56;;;;;;;;;;;8.50;99.90;;;;;;5001480;28;19924;-63
2023/04/02 12:43:23;;;;;;;;;;;8.60;99.90;;;;;;5009414;28;19920;-62
2023/04/02 12:45:56;;;;;;;;;;;8.50;99.90;;;;;;5006890;28;20295;-63
2023/04/02 12:48:22;;;;;;;;;;;8.50;99.90;;;;;;5012114;28;19913;-62
2023/04/02 12:50:48;;;;;;;;;;;8.50;99.90;;;;;;5003621;28;20295;-61
2023/04/02 12:53:18;;;;;;;;;;;8.50;99.90;;;;;;5008847;28;19920;-62
2023/04/02 12:55:48;;;;;;;;;;;8.50;99.90;;;;;;5005488;28;20390;-62
2023/04/02 12:58:23;;;;;;;;;;;8.50;99.90;;;;;;5011988;28;19920;-59
2023/04/02 13:00:48;;;;;;;;;;;8.60;99.90;;;;;;5004472;28;19996;-63
2023/04/02 13:03:16;;;;;;;;;;;8.60;99.90;;;;;;5011818;28;20011;-61
2023/04/02 13:05:53;;;;;;;;;;;8.60;99.90;;;;;;5004708;28;20268;-64
2023/04/02 13:08:29;;;;;;;;;;;8.70;99.90;;;;;;5005580;28;19913;-62
2023/04/02 13:10:57;;;;;;;;;;;8.50;99.90;;;;;;5005588;28;19932;-61
2023/04/02 13:13:26;;;;;;;;;;;8.60;99.90;;;;;;5005127;28;20016;-64
2023/04/02 13:16:01;;;;;;;;;;;8.60;99.90;;;;;;5004139;28;19913;-62
2023/04/02 13:18:27;;;;;;;;;;;8.60;99.90;;;;;;5006098;28;19913;-60
2023/04/02 13:20:55;;;;;;;;;;;8.60;99.90;;;;;;5009065;28;19917;-60
2023/04/02 13:23:29;;;;;;;;;;;8.60;99.90;;;;;;5008148;28;20000;-63
2023/04/02 13:25:55;;;;;;;;;;;8.50;99.90;;;;;;5005290;28;19960;-62
2023/04/02 13:28:21;;;;;;;;;;;8.50;99.90;;;;;;4992251;28;20401;-64
2023/04/02 13:30:46;;;;;;;;;;;8.50;99.90;;;;;;5003076;28;19956;-61
2023/04/02 13:33:12;;;;;;;;;;;8.60;99.90;;;;;;5011432;28;19960;-62
2023/04/02 13:35:38;;;;;;;;;;;8.70;99.90;;;;;;5010219;28;19927;-62
2023/04/02 13:38:04;;;;;;;;;;;8.70;99.90;;;;;;5005905;28;19913;-62
2023/04/02 13:40:31;;;;;;;;;;;8.70;99.90;;;;;;5004189;28;20008;-63
2023/04/02 13:42:56;;;;;;;;;;;8.70;99.90;;;;;;5010305;28;20367;-61
2023/04/02 13:45:38;;;;;;;;;;;8.90;99.90;;;;;;5007734;28;19920;-62
2023/04/02 13:48:04;;;;;;;;;;;8.80;99.90;;;;;;5000863;28;19921;-60
2023/04/02 13:50:31;;;;;;;;;;;8.80;99.90;;;;;;4996986;28;20878;-64
2023/04/02 13:52:57;;;;;;;;;;;8.80;99.90;;;;;;4998650;28;19928;-64
2023/04/02 13:55:26;;;;;;;;;;;8.90;99.90;;;;;;4998486;28;19987;-62
2023/04/02 13:57:51;;;;;;;;;;;8.80;99.90;;;;;;5003267;28;19925;-63
2023/04/02 14:00:18;;;;;;;;;;;8.90;99.90;;;;;;5002660;28;19925;-61
2023/04/02 14:02:47;;;;;;;;;;;8.80;99.90;;;;;;5008087;28;20288;-62
2023/04/02 14:05:32;;;;;;;;;;;8.80;99.90;;;;;;5006432;28;19914;-62
2023/04/02 14:08:07;;;;;;;;;;;8.80;99.90;;;;;;5007853;28;19913;-62
2023/04/02 14:10:51;;;;;;;;;;;8.70;99.90;;;;;;5002718;28;19918;-63
2023/04/02 14:13:21;;;;;;;;;;;8.70;99.90;;;;;;5004472;28;19921;-63
2023/04/02 14:15:56;;;;;;;;;;;8.80;99.90;;;;;;5002573;28;19913;-64
2023/04/02 14:18:40;;;;;;;;;;;8.80;99.90;;;;;;5005696;28;19960;-63
2023/04/02 14:21:11;;;;;;;;;;;8.80;99.90;;;;;;5002776;28;19931;-61
2023/04/02 14:24:00;;;;;;;;;;;8.80;99.90;;;;;;5002677;28;19968;-62
2023/04/02 14:26:26;;;;;;;;;;;8.70;99.90;;;;;;4985577;28;20472;-62
2023/04/02 14:29:01;;;;;;;;;;;8.70;99.90;;;;;;5003176;28;19936;-63
2023/04/02 14:31:35;;;;;;;;;;;8.80;99.90;;;;;;5005231;28;19930;-61
2023/04/02 14:34:02;;;;;;;;;;;8.80;99.90;;;;;;5007367;28;19917;-63
2023/04/02 14:36:57;;;;;;;;;;;8.80;99.90;;;;;;5008134;28;19952;-62
2023/04/02 14:39:26;;;;;;;;;;;8.70;99.90;;;;;;5006485;28;20012;-63
2023/04/02 14:42:03;;;;;;;;;;;8.70;99.90;;;;;;5006298;28;19913;-61
2023/04/02 14:44:32;;;;;;;;;;;8.50;99.90;;;;;;5008447;28;19920;-62
2023/04/02 14:47:04;;;;;;;;;;;8.40;99.90;;;;;;4991539;28;19914;-61
2023/04/02 14:49:34;;;;;;;;;;;8.50;99.90;;;;;;5001401;28;19921;-62
2023/04/02 14:52:01;;;;;;;;;;;8.50;99.90;;;;;;5003180;28;20047;-61